Terminal Aerodrome Forecast
Issued by NWS

Home | Current Version | Previous Version | Text Only | Print | Product List | Glossary On
Versions: 1 2 3 4 5 6 7 8 9 10 11 12 13 14
000
FTUS41 KPHI 281726
TAFMIV
TAF
KMIV 281726Z 2818/2918 16006KT P6SM FEW040
     FM282300 10003KT P6SM SKC
      TEMPO 2906/2910 1SM BR SCT004
     FM291600 29005KT P6SM SCT040=

USA.gov is the U.S. government's official web portal to all federal, state and local government web resources and services.